MSC Rochelle — D5GE9 — position and weather

sailwx.info

Track history (hours):
 
Tides and Currents Weather Stations Pressure Air Temp Water Temp Dewpoint Dewpoint Depression Visibility Wind Speed Wind Dir Waves Ship Positions

MSC Rochelle

Last reported at 2018-Feb-23 17:53 UTC. Time now 2018-Feb-25 06:01 UTC.
Position N 39°10' W 024°47'.

Length 293 m; draft 10.1 m.

Type: Ship (hazmat cat A). MMSI: 636016476.

Date/timePositionNaut miles runAvg speedWind from/ knotsBaromVisibWave heightAir tempDewpointWater temp
2018-Feb-23 17:53N 39°10' W 024°47'2418.4
2018-Feb-23 16:33N 39°14' W 025°18'118.9
2018-Feb-23 16:30N 39°14' W 025°20'918.6
2018-Feb-23 16:00N 39°16' W 025°32'8917.8
2018-Feb-23 10:59N 39°27' W 027°26'918.4
2018-Feb-23 10:30N 39°29' W 027°37'918.6
2018-Feb-23 10:00N 39°31' W 027°49'918.3
2018-Feb-23 09:30N 39°33' W 028°00'918.5
2018-Feb-23 09:01N 39°35' W 028°12'917.7
2018-Feb-23 08:30N 39°38' W 028°23'917.1
2018-Feb-23 08:00N 39°40' W 028°34'917.2
2018-Feb-23 07:31N 39°42' W 028°45'917.5
2018-Feb-23 07:00N 39°44' W 028°56'917.4
2018-Feb-23 06:30N 39°45' W 029°07'917.8
2018-Feb-23 06:00N 39°47' W 029°18'918.3
2018-Feb-23 05:31N 39°50' W 029°30'918.3
2018-Feb-23 05:00N 39°52' W 029°42'918.3
2018-Feb-23 04:30N 39°54' W 029°53'918.2
2018-Feb-23 04:00N 39°56' W 030°05'1017.9
2018-Feb-23 03:27N 39°58' W 030°17'1218.0
2018-Feb-23 02:48N 40°01' W 030°32'1417.7
2018-Feb-23 02:02N 40°04' W 030°49'117.8
2018-Feb-23 01:59N 40°04' W 030°51'918.1
2018-Feb-23 01:31N 40°06' W 031°01'918.0
2018-Feb-23 01:00N 40°08' W 031°13'  
2018-Feb-18 01:38N 46°50' W 071°08'214.5
2018-Feb-18 01:30N 46°50' W 071°11'11711.1
2018-Feb-17 15:03N 45°41' W 073°27'113.5
2018-Feb-17 15:00N 45°41' W 073°27'612.3
2018-Feb-17 14:31N 45°35' W 073°30'1 0.5
2018-Feb-17 13:24N 45°34' W 073°31'0 0.0
2018-Feb-17 13:00N 45°34' W 073°31'0 0.0
2018-Feb-17 12:30N 45°34' W 073°31'0 0.0
2018-Feb-17 11:54N 45°34' W 073°31'  
2018-Feb-14 08:14N 45°35' W 073°30'1 4.4
2018-Feb-14 08:00N 45°36' W 073°30'4 7.9
2018-Feb-14 07:28N 45°40' W 073°28'4 9.5
2018-Feb-14 07:00N 45°44' W 073°25'113 9.7
2018-Feb-13 19:22N 46°48' W 071°12'3 8.7
2018-Feb-13 19:00N 46°50' W 071°09'  
Track history (hours):
 
Tides and Currents Weather Stations Pressure Air Temp Water Temp Dewpoint Dewpoint Depression Visibility Wind Speed Wind Dir Waves Ship Positions

MSC Rochelle

Last reported at 2018-Feb-23 17:53 UTC. Time now 2018-Feb-25 06:01 UTC.
Position N 39°10' W 024°47'.

Length 293 m; draft 10.1 m.

Type: Ship (hazmat cat A). MMSI: 636016476.

Date/timePositionNaut miles runAvg speedWind from/ knotsBaromVisibWave heightAir tempDewpointWater temp
2018-Feb-23 17:53N 39°10' W 024°47'2418.4
2018-Feb-23 16:33N 39°14' W 025°18'118.9
2018-Feb-23 16:30N 39°14' W 025°20'918.6
2018-Feb-23 16:00N 39°16' W 025°32'8917.8
2018-Feb-23 10:59N 39°27' W 027°26'918.4
2018-Feb-23 10:30N 39°29' W 027°37'918.6
2018-Feb-23 10:00N 39°31' W 027°49'918.3
2018-Feb-23 09:30N 39°33' W 028°00'918.5
2018-Feb-23 09:01N 39°35' W 028°12'917.7
2018-Feb-23 08:30N 39°38' W 028°23'917.1
2018-Feb-23 08:00N 39°40' W 028°34'917.2
2018-Feb-23 07:31N 39°42' W 028°45'917.5
2018-Feb-23 07:00N 39°44' W 028°56'917.4
2018-Feb-23 06:30N 39°45' W 029°07'917.8
2018-Feb-23 06:00N 39°47' W 029°18'918.3
2018-Feb-23 05:31N 39°50' W 029°30'918.3
2018-Feb-23 05:00N 39°52' W 029°42'918.3
2018-Feb-23 04:30N 39°54' W 029°53'918.2
2018-Feb-23 04:00N 39°56' W 030°05'1017.9
2018-Feb-23 03:27N 39°58' W 030°17'1218.0
2018-Feb-23 02:48N 40°01' W 030°32'1417.7
2018-Feb-23 02:02N 40°04' W 030°49'117.8
2018-Feb-23 01:59N 40°04' W 030°51'918.1
2018-Feb-23 01:31N 40°06' W 031°01'918.0
2018-Feb-23 01:00N 40°08' W 031°13'  
2018-Feb-18 01:38N 46°50' W 071°08'214.5
2018-Feb-18 01:30N 46°50' W 071°11'11711.1
2018-Feb-17 15:03N 45°41' W 073°27'113.5
2018-Feb-17 15:00N 45°41' W 073°27'612.3
2018-Feb-17 14:31N 45°35' W 073°30'1 0.5
2018-Feb-17 13:24N 45°34' W 073°31'0 0.0
2018-Feb-17 13:00N 45°34' W 073°31'0 0.0
2018-Feb-17 12:30N 45°34' W 073°31'0 0.0
2018-Feb-17 11:54N 45°34' W 073°31'  
2018-Feb-14 08:14N 45°35' W 073°30'1 4.4
2018-Feb-14 08:00N 45°36' W 073°30'4 7.9
2018-Feb-14 07:28N 45°40' W 073°28'4 9.5
2018-Feb-14 07:00N 45°44' W 073°25'113 9.7
2018-Feb-13 19:22N 46°48' W 071°12'3 8.7
2018-Feb-13 19:00N 46°50' W 071°09'  

Dump ship's entire track history